Time;durP1;ratioP1;P1;durP2;ratioP2;P2;SDS_P1;SDS_P2;PMS_P1;PMS_P2;Temp;Humidity;BMP_temperature;BMP_pressure;BME280_temperature;BME280_humidity;BME280_pressure;Samples;Min_cycle;Max_cycle;Signal;HPM_P1;HPM_P2
2022/07/13 00:00:28;;;;;;;6.25;5.57;;;;;;;;;;5067606;28;20549;-79
2022/07/13 00:02:53;;;;;;;6.35;5.43;;;;;;;20.71;84.59;69072.25;5054844;28;20068;-80
2022/07/13 00:05:19;;;;;;;5.85;5.20;;;;;;;;;;5068859;28;20173;-79
2022/07/13 00:07:44;;;;;;;6.38;5.60;;;;;;;20.65;85.80;69065.41;5065271;28;20063;-80
2022/07/13 00:10:11;;;;;;;7.88;5.70;;;;;;;20.67;86.47;69067.69;5071142;28;20428;-78
2022/07/13 00:12:38;;;;;;;6.22;5.55;;;;;;;20.66;87.55;69071.97;5071866;28;20070;-79
2022/07/13 00:15:04;;;;;;;8.65;5.88;;;;;;;20.60;89.05;69054.25;5057959;28;20052;-79
2022/07/13 00:17:29;;;;;;;8.88;7.57;;;;;;;20.58;92.86;69057.41;5074074;28;20089;-79
2022/07/13 00:19:55;;;;;;;8.95;7.43;;;;;;;20.47;92.20;69045.38;5092628;28;20040;-79
2022/07/13 00:22:20;;;;;;;11.10;8.02;;;;;;;;;;5065463;28;20709;-79
2022/07/13 00:24:45;;;;;;;10.73;8.63;;;;;;;20.32;94.58;69028.22;5089787;28;20036;-78
2022/07/13 00:27:11;;;;;;;11.07;9.48;;;;;;;20.21;96.95;69022.19;5069285;28;20508;-79
2022/07/13 00:29:36;;;;;;;10.68;9.57;;;;;;;20.04;98.58;68997.91;5063930;28;20055;-79
2022/07/13 00:32:02;;;;;;;11.45;8.85;;;;;;;20.05;98.80;68996.38;5069868;28;20047;-79
2022/07/13 00:34:27;;;;;;;10.43;8.70;;;;;;;20.00;97.54;68998.75;5070967;28;20447;-79
2022/07/13 00:36:53;;;;;;;11.63;10.32;;;;;;;19.89;98.76;68980.22;5071551;28;20467;-79
2022/07/13 00:39:18;;;;;;;12.25;10.38;;;;;;;19.82;99.50;68973.34;5070941;28;20135;-78
2022/07/13 00:41:45;;;;;;;12.32;10.55;;;;;;;19.82;100.00;68967.94;5072108;28;20071;-79
2022/07/13 00:44:11;;;;;;;12.55;11.35;;;;;;;;;;5068802;28;20064;-78
2022/07/13 00:46:37;;;;;;;12.23;10.95;;;;;;;19.81;100.00;68972.19;5071042;28;20590;-79
2022/07/13 00:49:06;;;;;;;12.35;11.05;;;;;;;19.73;99.52;68963.03;5069673;28;20036;-79
2022/07/13 00:51:31;;;;;;;12.60;10.95;;;;;;;19.74;99.84;68963.63;5070747;28;20041;-79
2022/07/13 00:53:59;;;;;;;12.32;11.18;;;;;;;19.74;100.00;68969.59;5073194;28;20562;-79
2022/07/13 00:56:24;;;;;;;12.82;11.63;;;;;;;;;;5073643;28;20043;-79
2022/07/13 00:58:50;;;;;;;13.30;11.98;;;;;;;19.68;100.00;68962.75;5073005;28;20044;-79
2022/07/13 01:01:16;;;;;;;13.48;12.07;;;;;;;;;;5068926;28;20721;-79
2022/07/13 01:03:41;;;;;;;13.15;11.88;;;;;;;;;;5073686;28;20040;-80
2022/07/13 01:06:07;;;;;;;13.27;11.88;;;;;;;19.73;97.49;68962.47;5073059;28;20475;-80
2022/07/13 01:08:34;;;;;;;12.43;11.13;;;;;;;19.78;94.48;68973.59;5069861;28;20066;-79
2022/07/13 01:10:59;;;;;;;12.60;11.30;;;;;;;19.91;95.61;68987.88;5073953;28;20044;-80
2022/07/13 01:13:25;;;;;;;12.43;11.23;;;;;;;;;;5067570;28;20029;-79
2022/07/13 01:15:50;;;;;;;12.45;11.25;;;;;;;;;;5066101;28;20567;-78
2022/07/13 01:18:16;;;;;;;12.57;11.10;;;;;;;19.93;94.09;68985.34;5072336;28;20182;-79
2022/07/13 01:20:42;;;;;;;12.93;11.63;;;;;;;19.86;93.70;68977.34;5068541;28;20033;-80
2022/07/13 01:23:10;;;;;;;12.88;11.68;;;;;;;19.83;93.75;68973.91;5072870;28;20090;-80
2022/07/13 01:25:36;;;;;;;12.77;11.15;;;;;;;;;;5072235;28;20040;-79
2022/07/13 01:28:01;;;;;;;12.50;11.30;;;;;;;19.78;94.46;68973.59;5063713;28;20156;-78
2022/07/13 01:30:27;;;;;;;12.80;11.40;;;;;;;19.78;92.87;68968.75;5073523;28;20271;-79
2022/07/13 01:32:52;;;;;;;12.50;11.20;;;;;;;19.82;92.72;68973.34;5073364;28;20697;-79
2022/07/13 01:35:21;;;;;;;11.93;10.70;;;;;;;19.79;92.09;68969.91;5069668;28;20064;-79
2022/07/13 01:37:47;;;;;;;12.75;11.25;;;;;;;;;;5073435;28;20524;-80
2022/07/13 01:40:13;;;;;;;11.70;10.45;;;;;;;;;;5072509;28;20143;-78
2022/07/13 01:42:46;;;;;;;12.73;11.43;;;;;;;19.81;92.20;68968.94;5072927;28;20045;-79
2022/07/13 01:45:14;;;;;;;12.75;11.30;;;;;;;19.79;92.04;68969.34;5072289;28;20032;-78
2022/07/13 01:47:41;;;;;;;11.95;10.75;;;;;;;19.71;92.50;68960.19;5073413;28;20053;-80
2022/07/13 01:50:08;;;;;;;13.73;10.88;;;;;;;19.64;92.36;68957.56;5071459;28;20054;-79
2022/07/13 01:52:35;;;;;;;12.07;10.75;;;;;;;19.66;92.06;68955.06;5057123;28;20094;-80
2022/07/13 01:55:04;;;;;;;12.82;11.40;;;;;;;19.53;93.49;68940.16;5053357;28;20037;-80
2022/07/13 01:57:29;;;;;;;;;;;;;;;;;;5067015;28;20041;-80
2022/07/13 02:00:05;;;;;;;13.18;11.77;;;;;;;;;;5071247;28;19924;-80
2022/07/13 02:02:31;;;;;;;12.95;11.65;;;;;;;19.47;92.29;68933.88;5074361;28;20123;-79
2022/07/13 02:04:56;;;;;;;11.98;10.68;;;;;;;19.53;92.20;68940.16;5072109;28;20101;-79
2022/07/13 02:07:22;;;;;;;12.63;11.40;;;;;;;19.53;92.58;68946.13;5072977;28;20105;-80
2022/07/13 02:09:48;;;;;;;12.65;10.95;;;;;;;;;;5070584;28;20480;-80
2022/07/13 02:12:13;;;;;;;12.32;10.88;;;;;;;19.49;91.89;68941.56;5068578;28;20071;-80
2022/07/13 02:14:39;;;;;;;12.75;11.50;;;;;;;19.47;92.05;68933.88;5063886;28;20047;-80
2022/07/13 02:17:04;;;;;;;12.18;10.98;;;;;;;;;;5066337;28;20086;-80
2022/07/13 02:19:30;;;;;;;12.17;10.33;;;;;;;19.50;90.54;68936.75;5074601;28;20037;-80
2022/07/13 02:21:55;;;;;;;12.40;11.10;;;;;;;19.49;91.07;68936.19;5072588;28;20367;-78
2022/07/13 02:24:20;;;;;;;13.30;11.90;;;;;;;19.41;90.94;68924.34;5073835;28;20029;-80
2022/07/13 02:26:46;;;;;;;13.52;11.48;;;;;;;;;;5071834;28;20117;-80
2022/07/13 02:29:11;;;;;;;12.63;10.90;;;;;;;19.30;93.10;68911.75;5073240;28;20032;-79
2022/07/13 02:31:36;;;;;;;12.57;11.30;;;;;;;;;;5071333;28;20282;-80
2022/07/13 02:34:02;;;;;;;15.02;12.15;;;;;;;19.12;94.48;68894.47;5072477;28;20044;-79
2022/07/13 02:36:27;;;;;;;14.15;12.68;;;;;;;19.06;95.25;68885.50;5062023;28;20032;-80
2022/07/13 02:38:52;;;;;;;13.02;11.27;;;;;;;;;;5077356;28;20086;-80
2022/07/13 02:41:17;;;;;;;13.88;12.30;;;;;;;;;;5071186;28;20124;-80
2022/07/13 02:43:43;;;;;;;14.40;12.90;;;;;;;18.87;97.22;68871.88;5055872;28;20047;-80
2022/07/13 02:46:08;;;;;;;13.88;12.40;;;;;;;18.83;97.08;68867.88;5071474;28;20314;-79
2022/07/13 02:48:34;;;;;;;14.75;13.18;;;;;;;;;;5072575;28;20037;-78
2022/07/13 02:50:59;;;;;;;14.48;13.05;;;;;;;;;;5068813;28;20124;-79
2022/07/13 02:53:24;;;;;;;15.10;12.70;;;;;;;;;;5071848;28;20052;-79
2022/07/13 02:55:50;;;;;;;13.07;11.37;;;;;;;18.78;96.98;68856.22;5071975;28;20044;-78
2022/07/13 02:58:15;;;;;;;13.15;11.80;;;;;;;18.85;96.50;68869.59;5072960;28;20310;-79
2022/07/13 03:00:40;;;;;;;12.40;11.10;;;;;;;18.91;95.12;68871.63;5071841;28;20048;-79
2022/07/13 03:03:06;;;;;;;12.75;11.13;;;;;;;;;;5070268;28;20413;-79
2022/07/13 03:05:31;;;;;;;13.63;10.52;;;;;;;18.97;94.64;68886.00;5071644;28;20071;-79
2022/07/13 03:07:56;;;;;;;11.15;9.68;;;;;;;;;;5071827;28;20127;-79
2022/07/13 03:10:22;;;;;;;11.48;9.23;;;;;;;19.11;91.80;68893.91;5071012;28;20036;-79
2022/07/13 03:12:47;;;;;;;10.95;9.57;;;;;;;19.15;89.99;68903.28;5071982;28;20056;-79
2022/07/13 03:15:12;;;;;;;10.23;9.18;;;;;;;19.24;89.30;68907.59;5082760;28;20028;-79
2022/07/13 03:17:40;;;;;;;11.25;9.48;;;;;;;19.34;88.46;68924.44;5086626;28;20109;-79
2022/07/13 03:20:06;;;;;;;9.95;7.78;;;;;;;;;;5073050;28;20093;-79
2022/07/13 03:22:31;;;;;;;11.25;8.75;;;;;;;19.41;86.67;68931.88;5051236;23;20061;-86
2022/07/13 03:24:57;;;;;;;9.40;8.38;;;;;;;19.46;86.70;68932.75;5035522;28;20508;-87
2022/07/13 03:27:22;;;;;;;11.63;7.97;;;;;;;;;;5023070;28;20082;-86
2022/07/13 03:29:47;;;;;;;9.67;8.40;;;;;;;19.51;85.48;68943.31;5033703;28;20489;-86
2022/07/13 03:32:13;;;;;;;9.13;7.78;;;;;;;19.54;84.62;68947.28;5022286;28;20280;-85
2022/07/13 03:34:38;;;;;;;9.18;7.32;;;;;;;19.57;84.17;68953.41;5020346;28;20156;-87
2022/07/13 03:37:04;;;;;;;8.52;7.63;;;;;;;19.61;83.86;68954.72;5004937;28;20080;-86
2022/07/13 03:39:32;;;;;;;8.30;6.75;;;;;;;19.60;82.36;68948.75;5021863;28;20553;-85
2022/07/13 03:41:58;;;;;;;9.25;7.32;;;;;;;19.61;81.60;68949.88;5022058;28;20049;-86
2022/07/13 03:44:23;;;;;;;8.88;6.30;;;;;;;;;;5003443;28;20049;-85
2022/07/13 03:46:48;;;;;;;7.35;6.35;;;;;;;19.71;82.30;68960.19;5020979;28;20049;-85
2022/07/13 03:49:14;;;;;;;10.02;7.03;;;;;;;19.65;83.18;68953.31;5005985;28;20056;-86
2022/07/13 03:51:40;;;;;;;7.68;6.65;;;;;;;;;;5041065;28;20065;-86
2022/07/13 03:54:06;;;;;;;6.60;5.90;;;;;;;19.63;81.88;68957.00;5045104;28;20560;-87
2022/07/13 03:56:32;;;;;;;6.95;5.70;;;;;;;;;;5033858;28;20129;-85
2022/07/13 03:58:57;;;;;;;7.53;5.93;;;;;;;19.69;78.57;68963.88;5041033;28;20437;-86
2022/07/13 04:01:22;;;;;;;8.23;5.57;;;;;;;19.79;78.65;68969.91;5023607;28;20436;-85
2022/07/13 04:03:48;;;;;;;6.35;5.38;;;;;;;19.82;78.26;68972.75;5027618;28;20120;-85
2022/07/13 04:06:13;;;;;;;6.55;5.47;;;;;;;19.83;78.59;68973.91;5039898;28;20091;-85
2022/07/13 04:08:39;;;;;;;7.03;5.30;;;;;;;;;;5041484;28;20063;-85
2022/07/13 04:11:04;;;;;;;5.85;4.93;;;;;;;19.82;77.90;68973.34;5052006;28;20044;-86
2022/07/13 04:13:30;;;;;;;6.88;5.07;;;;;;;19.83;78.06;68982.59;5047123;28;20037;-85
2022/07/13 04:15:55;;;;;;;5.65;4.57;;;;;;;;;;5025928;28;20129;-86
2022/07/13 04:18:20;;;;;;;7.18;5.10;;;;;;;19.89;77.12;68980.78;5042219;28;20471;-86
2022/07/13 04:20:46;;;;;;;6.93;5.15;;;;;;;;;;5038539;28;20577;-86
2022/07/13 04:23:11;;;;;;;6.28;5.18;;;;;;;20.03;76.63;68996.22;5025435;28;20505;-87
2022/07/13 04:25:36;;;;;;;6.50;5.10;;;;;;;20.05;76.42;69003.88;5027055;28;20139;-88
2022/07/13 04:28:02;;;;;;;7.00;5.00;;;;;;;20.12;75.75;69005.94;5026972;28;20068;-86
2022/07/13 04:30:27;;;;;;;7.00;5.53;;;;;;;;;;5035271;28;20043;-86
2022/07/13 04:32:53;;;;;;;8.00;5.65;;;;;;;20.11;76.26;69005.34;5026512;28;20083;-87
2022/07/13 04:35:18;;;;;;;6.68;5.28;;;;;;;;;;5034822;28;20449;-86
2022/07/13 04:37:43;;;;;;;7.30;5.53;;;;;;;20.20;75.14;69015.06;5041536;28;20045;-88
2022/07/13 04:40:09;;;;;;;8.10;5.45;;;;;;;20.22;75.36;69015.22;5023201;28;20450;-86
2022/07/13 04:42:34;;;;;;;7.03;5.30;;;;;;;20.24;74.85;69025.63;5023660;28;20103;-87
2022/07/13 04:45:00;;;;;;;5.82;5.03;;;;;;;20.28;74.95;69029.59;5041314;28;20474;-86
2022/07/13 04:47:26;;;;;;;7.20;5.10;;;;;;;;;;5031002;28;20486;-88
2022/07/13 04:49:52;;;;;;;6.75;5.90;;;;;;;20.33;75.21;69029.34;5022888;28;20041;-88
2022/07/13 04:52:17;;;;;;;7.13;5.20;;;;;;;20.37;74.11;69033.91;5034354;28;20041;-86
2022/07/13 04:54:42;;;;;;;8.00;5.65;;;;;;;;;;5047201;28;20063;-86
2022/07/13 04:57:08;;;;;;;7.93;5.22;;;;;;;20.45;74.21;69043.63;5040565;28;20049;-87
2022/07/13 04:59:33;;;;;;;7.93;5.40;;;;;;;;;;5040033;28;20048;-86
2022/07/13 05:01:58;;;;;;;8.70;5.60;;;;;;;;;;5033013;28;20057;-86
2022/07/13 05:04:24;;;;;;;7.35;5.38;;;;;;;;;;5037391;28;20760;-86
2022/07/13 05:06:49;;;;;;;7.25;5.75;;;;;;;20.70;72.37;69076.53;5028857;28;20042;-86
2022/07/13 05:09:15;;;;;;;8.23;5.45;;;;;;;20.81;71.50;69083.69;5034232;28;20417;-87
2022/07/13 05:11:42;;;;;;;11.63;5.88;;;;;;;20.91;71.27;69094.56;5029163;28;20053;-86
2022/07/13 05:14:07;;;;;;;9.23;5.20;;;;;;;;;;5049124;28;20041;-86
2022/07/13 05:16:32;;;;;;;8.88;5.50;;;;;;;21.00;70.62;69104.28;5044469;28;20110;-86
2022/07/13 05:18:58;;;;;;;8.57;5.35;;;;;;;21.04;70.90;69106.16;5055342;28;20053;-89
2022/07/13 05:21:23;;;;;;;6.20;5.18;;;;;;;21.07;70.09;69112.31;5050487;28;20041;-86
2022/07/13 05:23:48;;;;;;;7.47;4.78;;;;;;;21.12;70.85;69118.03;5042756;28;20037;-86
2022/07/13 05:26:14;;;;;;;6.13;4.47;;;;;;;21.18;70.07;69122.75;5029357;28;20099;-86
2022/07/13 05:28:39;;;;;;;9.60;5.50;;;;;;;;;;5038134;28;20128;-87
2022/07/13 05:31:04;;;;;;;8.10;5.07;;;;;;;;;;5068557;28;20056;-88
2022/07/13 05:33:30;;;;;;;7.57;5.10;;;;;;;21.32;70.08;69146.31;5045038;28;20547;-86
2022/07/13 05:35:55;;;;;;;7.80;5.25;;;;;;;21.36;70.17;69142.19;5030353;28;20280;-86
2022/07/13 05:38:21;;;;;;;7.90;5.40;;;;;;;;;;5031236;28;20435;-86
2022/07/13 05:40:46;;;;;;;7.55;5.00;;;;;;;21.43;70.26;69152.34;5045176;28;20061;-87
2022/07/13 05:43:12;;;;;;;9.07;5.40;;;;;;;;;;5026029;28;20570;-87
2022/07/13 05:45:37;;;;;;;8.35;4.80;;;;;;;21.45;71.07;69152.50;5043335;28;20414;-86
2022/07/13 05:48:03;;;;;;;9.30;5.38;;;;;;;21.47;70.51;69156.94;5040026;28;20036;-87
2022/07/13 05:50:28;;;;;;;8.98;5.50;;;;;;;21.50;70.55;69160.94;5027455;28;20192;-88
2022/07/13 05:52:53;;;;;;;8.25;5.95;;;;;;;;;;5029310;28;20543;-86
2022/07/13 05:55:19;;;;;;;8.67;5.43;;;;;;;;;;5036999;28;20044;-86
2022/07/13 05:57:44;;;;;;;7.57;5.50;;;;;;;21.59;70.45;69165.81;5058332;28;20760;-86
2022/07/13 06:00:14;;;;;;;9.90;5.55;;;;;;;;;;5049399;28;20242;-87
2022/07/13 06:02:40;;;;;;;8.32;5.15;;;;;;;;;;5028243;28;20505;-86
2022/07/13 06:05:05;;;;;;;5.95;3.90;;;;;;;21.74;67.61;69187.25;5032455;28;20041;-86
2022/07/13 06:07:31;;;;;;;6.85;4.88;;;;;;;21.85;68.55;69200.44;5037520;28;20045;-87
2022/07/13 06:10:01;;;;;;;7.72;4.70;;;;;;;;;;5048974;28;20035;-88
2022/07/13 06:12:27;;;;;;;7.18;4.43;;;;;;;21.97;68.64;69213.03;5046810;28;20049;-87
2022/07/13 06:14:52;;;;;;;7.78;4.07;;;;;;;22.02;67.41;69219.31;5046335;28;20505;-86
2022/07/13 06:17:18;;;;;;;5.80;3.83;;;;;;;22.09;67.21;69224.59;5047915;28;20063;-86
2022/07/13 06:19:44;;;;;;;6.13;4.28;;;;;;;;;;5040929;28;20041;-86
2022/07/13 06:22:09;;;;;;;6.70;3.67;;;;;;;;;;5030083;28;20046;-86
2022/07/13 06:24:34;;;;;;;7.70;4.13;;;;;;;22.20;66.61;69239.38;5058978;28;20038;-86
2022/07/13 06:26:59;;;;;;;7.38;4.10;;;;;;;;;;5039810;28;20355;-87
2022/07/13 06:29:25;;;;;;;8.43;4.03;;;;;;;22.26;66.33;69246.25;5047639;28;20048;-86
2022/07/13 06:31:50;;;;;;;7.15;3.70;;;;;;;;;;5031898;28;20292;-86
2022/07/13 06:34:15;;;;;;;8.00;3.88;;;;;;;22.34;66.09;69254.25;5041641;28;20026;-87
2022/07/13 06:36:41;;;;;;;4.90;3.50;;;;;;;22.35;65.42;69253.25;5039831;28;20048;-86
2022/07/13 06:39:06;;;;;;;4.93;3.20;;;;;;;22.38;66.15;69253.97;5047987;28;20037;-88
2022/07/13 06:41:32;;;;;;;5.47;3.22;;;;;;;22.43;65.56;69261.84;5048053;28;20057;-87
2022/07/13 06:43:57;;;;;;;5.05;3.65;;;;;;;22.46;65.33;69268.00;5048463;28;20056;-86
2022/07/13 06:46:23;;;;;;;5.70;3.55;;;;;;;22.53;65.74;69273.31;5048244;28;20041;-87
2022/07/13 06:48:48;;;;;;;7.10;3.40;;;;;;;;;;5064475;28;20041;-86
2022/07/13 06:51:14;;;;;;;5.63;3.22;;;;;;;;;;5042834;23;20038;-76
2022/07/13 06:53:39;;;;;;;6.65;3.63;;;;;;;22.73;64.85;69298.94;5031193;28;20049;-76
2022/07/13 06:56:05;;;;;;;7.68;3.47;;;;;;;22.74;65.01;69297.34;5034320;28;20094;-76
2022/07/13 06:58:30;;;;;;;6.60;3.50;;;;;;;;;;5050866;28;20033;-80
2022/07/13 07:00:55;;;;;;;8.45;3.53;;;;;;;22.85;64.83;69311.53;5027467;28;20098;-78
2022/07/13 07:03:21;;;;;;;7.55;3.83;;;;;;;22.94;64.29;69319.13;5020451;28;20126;-76
2022/07/13 07:05:47;;;;;;;5.43;3.50;;;;;;;23.01;64.23;69329.88;5033964;28;20065;-76
2022/07/13 07:08:12;;;;;;;12.88;4.05;;;;;;;23.09;64.78;69333.59;5033339;28;20044;-76
2022/07/13 07:10:37;;;;;;;6.68;4.10;;;;;;;23.15;63.59;69343.19;5031232;28;20581;-75
2022/07/13 07:13:03;;;;;;;7.82;3.65;;;;;;;23.18;63.31;69346.06;5031135;28;20128;-78
2022/07/13 07:15:29;;;;;;;7.07;3.90;;;;;;;23.22;63.31;69347.94;5035037;28;20036;-78
2022/07/13 07:17:54;;;;;;;7.18;4.18;;;;;;;23.24;63.66;69355.66;5036545;28;20041;-78
2022/07/13 07:20:19;;;;;;;6.78;4.28;;;;;;;23.25;63.14;69353.50;5031973;28;20136;-76
2022/07/13 07:22:46;;;;;;;8.70;4.50;;;;;;;23.31;63.79;69363.09;5050186;28;20065;-82
2022/07/13 07:25:12;;;;;;;6.55;4.25;;;;;;;;;;5027077;28;20038;-78
2022/07/13 07:27:39;;;;;;;8.70;4.30;;;;;;;23.39;63.16;69372.25;5027185;28;20476;-77
2022/07/13 07:30:05;;;;;;;8.60;3.72;;;;;;;23.41;63.08;69372.41;5010539;28;20033;-78
2022/07/13 07:32:31;;;;;;;7.32;4.35;;;;;;;23.47;62.59;69381.44;5027414;28;20033;-78
2022/07/13 07:34:56;;;;;;;8.57;4.53;;;;;;;23.51;62.35;69385.44;5028287;28;20045;-78
2022/07/13 07:37:22;;;;;;;9.07;4.50;;;;;;;23.57;62.39;69392.91;5027239;28;20041;-78
2022/07/13 07:39:51;;;;;;;7.22;4.50;;;;;;;23.64;62.25;69400.91;5028219;28;20041;-81
2022/07/13 07:42:16;;;;;;;8.00;4.63;;;;;;;;;;5029543;28;20122;-77
2022/07/13 07:44:42;;;;;;;7.35;4.82;;;;;;;23.65;62.25;69402.06;5031173;28;20072;-79
2022/07/13 07:47:08;;;;;;;6.93;4.60;;;;;;;23.76;61.62;69413.53;5025652;28;20693;-80
2022/07/13 07:49:34;;;;;;;10.90;4.53;;;;;;;23.71;61.24;69407.81;5045510;28;20145;-80
2022/07/13 07:52:00;;;;;;;10.05;4.72;;;;;;;23.79;61.73;69416.97;5033990;28;20128;-81
2022/07/13 07:54:25;;;;;;;7.15;4.70;;;;;;;23.91;60.61;69430.75;5027370;28;20037;-77
2022/07/13 07:56:51;;;;;;;8.82;4.70;;;;;;;24.03;60.64;69439.06;5031852;28;20049;-78
2022/07/13 07:59:16;;;;;;;6.28;4.43;;;;;;;24.06;60.09;69444.66;5017995;28;20044;-78
2022/07/13 08:01:42;;;;;;;7.35;4.70;;;;;;;24.10;60.11;69449.78;5032996;28;20045;-81
2022/07/13 08:04:07;;;;;;;8.48;4.85;;;;;;;24.14;60.65;69455.94;5030587;28;20128;-77
2022/07/13 08:06:33;;;;;;;6.60;4.95;;;;;;;24.29;60.58;69470.44;5031078;28;20045;-77
2022/07/13 08:08:58;;;;;;;9.10;4.60;;;;;;;24.52;60.21;69496.84;5029374;28;20033;-82
2022/07/13 08:11:24;;;;;;;7.47;4.60;;;;;;;24.68;58.93;69517.31;5026595;28;20541;-79
2022/07/13 08:13:51;;;;;;;10.15;4.50;;;;;;;24.78;58.67;69525.50;5028057;28;20041;-77
2022/07/13 08:16:17;;;;;;;7.40;4.88;;;;;;;24.75;58.40;69522.06;5035088;28;20678;-77
2022/07/13 08:18:44;;;;;;;7.13;4.65;;;;;;;24.84;57.22;69529.66;5030994;28;20121;-81
2022/07/13 08:21:09;;;;;;;7.85;4.25;;;;;;;24.96;57.80;69546.16;5017394;28;20057;-80
2022/07/13 08:23:53;;;;;;;7.85;4.65;;;;;;;25.11;56.65;69562.19;5026597;28;20057;-80
2022/07/13 08:26:24;;;;;;;7.18;5.55;;;;;;;25.12;57.48;69560.63;5010551;28;20576;-77
2022/07/13 08:28:50;;;;;;;7.85;5.05;;;;;;;25.21;57.84;69574.28;5027174;28;20417;-79
2022/07/13 08:31:16;;;;;;;7.45;4.82;;;;;;;25.30;56.72;69581.31;5033637;28;20079;-76
2022/07/13 08:39:11;;;;;;;5.38;3.78;;;;;;;25.53;55.99;69607.13;5037071;28;20045;-77
2022/07/13 08:41:38;;;;;;;7.82;5.13;;;;;;;25.73;55.39;69628.94;5026463;28;20405;-77
2022/07/13 08:44:03;;;;;;;8.25;5.00;;;;;;;25.85;55.56;69648.75;5028146;28;20052;-78
2022/07/13 08:46:29;;;;;;;7.80;4.13;;;;;;;25.91;56.56;69651.75;5041551;28;20038;-80
2022/07/13 08:48:56;;;;;;;6.45;4.30;;;;;;;25.95;56.12;69656.94;5004979;28;20054;-78
2022/07/13 08:51:23;;;;;;;10.50;4.55;;;;;;;26.08;54.50;69674.00;5029719;28;20090;-77
2022/07/13 08:53:54;;;;;;;7.43;4.05;;;;;;;26.09;53.64;69669.69;5031381;28;20042;-82
2022/07/13 08:56:19;;;;;;;7.30;3.78;;;;;;;25.95;53.60;69656.34;5031307;28;20127;-77
2022/07/13 08:58:44;;;;;;;7.45;4.30;;;;;;;25.89;53.67;69650.03;5050701;28;20510;-80
2022/07/13 09:01:11;;;;;;;6.28;3.50;;;;;;;26.07;53.97;69667.41;5046004;28;20175;-78
2022/07/13 09:06:58;;;;;;;7.82;3.38;;;;;;;26.42;53.05;69706.44;5014804;28;20052;-81
2022/07/13 09:09:33;;;;;;;5.30;2.92;;;;;;;26.58;53.58;69730.28;5032198;28;20041;-77
2022/07/13 09:12:21;;;;;;;5.85;3.25;;;;;;;26.50;52.19;69718.94;5028905;28;20132;-77
2022/07/13 09:14:52;;;;;;;6.00;3.03;;;;;;;26.43;52.79;69710.31;5016927;28;20042;-77
2022/07/13 09:17:36;;;;;;;4.65;3.25;;;;;;;26.59;53.54;69728.72;5027297;28;20042;-80
2022/07/13 09:20:23;;;;;;;4.93;3.00;;;;;;;26.86;52.99;69759.13;5026321;28;20144;-78
2022/07/13 09:22:58;;;;;;;6.05;3.85;;;;;;;26.94;52.69;69767.75;5012848;28;20661;-79
2022/07/13 09:25:38;;;;;;;8.82;4.20;;;;;;;26.91;53.09;69764.31;5018390;28;20672;-77
2022/07/13 09:28:08;;;;;;;5.85;3.92;;;;;;;26.89;52.27;69759.28;5024155;28;20077;-80
2022/07/13 09:30:40;;;;;;;5.38;3.22;;;;;;;26.84;53.02;69759.00;5029130;28;20037;-78
2022/07/13 09:33:06;;;;;;;6.18;3.20;;;;;;;27.05;52.86;69780.38;5038900;28;20037;-81
2022/07/13 09:35:46;;;;;;;8.23;3.40;;;;;;;27.13;51.96;69789.00;5028243;28;20049;-78
2022/07/13 09:38:36;;;;;;;5.28;3.20;;;;;;;27.11;52.30;69789.44;5032457;28;20037;-83
2022/07/13 09:41:21;;;;;;;5.85;3.60;;;;;;;27.18;52.58;69792.03;5025196;28;20057;-78
2022/07/13 09:46:49;;;;;;;6.10;3.80;;;;;;;27.40;53.69;69819.47;5009144;28;20658;-78
2022/07/13 09:49:16;;;;;;;5.75;3.67;;;;;;;27.40;52.90;69817.31;5026442;28;20071;-82
2022/07/13 09:51:44;;;;;;;7.10;4.43;;;;;;;27.35;52.41;69813.72;5020324;28;20049;-78
2022/07/13 09:54:11;;;;;;;8.43;4.30;;;;;;;27.28;53.25;69800.78;5028467;28;20041;-79
2022/07/13 09:56:42;;;;;;;6.32;4.13;;;;;;;27.45;53.32;69823.06;5029112;28;20057;-80
2022/07/13 09:59:08;;;;;;;6.82;4.97;;;;;;;27.52;52.33;69835.41;5037745;28;20041;-78
2022/07/13 10:01:33;;;;;;;7.57;4.00;;;;;;;27.70;52.59;69847.31;5036725;28;20042;-82
2022/07/13 10:04:00;;;;;;;4.65;3.60;;;;;;;27.75;52.24;69853.63;5036725;28;20037;-79
2022/07/13 10:06:26;;;;;;;6.20;4.50;;;;;;;27.74;51.06;69854.66;5037449;28;20037;-78
2022/07/13 10:08:53;;;;;;;6.40;5.00;;;;;;;27.59;51.62;69844.03;5027769;28;20049;-78
2022/07/13 10:11:19;;;;;;;5.78;4.20;;;;;;;27.55;52.00;69839.44;5030756;28;20056;-77
2022/07/13 10:13:45;;;;;;;8.60;3.83;;;;;;;27.72;52.89;69852.34;5030884;28;20488;-78
2022/07/13 10:16:11;;;;;;;6.78;4.40;;;;;;;27.64;52.46;69844.31;5029088;28;20046;-81
2022/07/13 10:18:39;;;;;;;7.75;5.30;;;;;;;27.65;53.04;69845.47;5029033;28;20037;-78
2022/07/13 10:21:04;;;;;;;9.13;5.47;;;;;;;;;;5028910;28;20684;-78
2022/07/13 10:23:34;;;;;;;6.87;5.67;;;;;;;27.72;53.16;69855.09;5036452;28;20128;-81
2022/07/13 10:26:00;;;;;;;14.68;5.60;;;;;;;27.74;52.80;69857.41;5032281;28;20286;-80
2022/07/13 10:28:25;;;;;;;7.22;4.00;;;;;;;27.80;53.18;69864.88;5037306;28;20120;-81
2022/07/13 10:30:51;;;;;;;6.95;4.72;;;;;;;27.92;53.45;69874.78;5028707;28;20048;-78
2022/07/13 10:33:21;;;;;;;9.23;4.82;;;;;;;27.98;53.02;69881.69;5029096;28;20037;-81
2022/07/13 10:35:51;;;;;;;10.73;5.93;;;;;;;27.93;52.54;69873.75;5028475;28;20087;-78
2022/07/13 10:38:20;;;;;;;9.52;5.57;;;;;;;27.79;52.25;69860.41;5029163;28;20030;-78
2022/07/13 10:40:45;;;;;;;;;;;;;;;27.91;52.44;69876.94;5028700;28;20068;-79
2022/07/13 10:43:13;;;;;;;9.33;5.37;;;;;;;27.99;52.90;69885.56;5044483;28;19949;-78
2022/07/13 10:45:48;;;;;;;6.80;4.93;;;;;;;28.09;52.63;69894.91;5026701;28;20283;-80
2022/07/13 10:48:16;;;;;;;7.20;5.13;;;;;;;28.18;51.83;69909.56;5033034;28;20093;-85
2022/07/13 10:50:54;;;;;;;8.75;5.53;;;;;;;28.27;52.66;69917.19;5020610;28;20691;-80
2022/07/13 10:53:21;;;;;;;7.20;4.22;;;;;;;28.35;51.39;69926.94;5019416;28;20044;-79
2022/07/13 10:55:50;;;;;;;7.43;4.93;;;;;;;28.22;51.09;69909.25;5025507;28;20148;-79
2022/07/13 10:58:30;;;;;;;8.40;4.22;;;;;;;28.32;51.89;69923.50;5030653;28;20106;-78
2022/07/13 11:00:59;;;;;;;7.95;4.40;;;;;;;28.24;50.60;69916.47;4990888;28;20048;-80
2022/07/13 11:03:35;;;;;;;6.50;4.50;;;;;;;28.35;50.49;69924.22;5031493;28;20107;-78
2022/07/13 11:06:03;;;;;;;6.95;4.57;;;;;;;28.39;49.63;69928.22;5029213;28;20068;-78
2022/07/13 11:08:29;;;;;;;8.43;4.13;;;;;;;28.34;50.28;69923.06;5033571;28;20138;-80
2022/07/13 11:11:12;;;;;;;8.23;4.68;;;;;;;28.31;49.35;69921.75;5027851;28;20682;-84
2022/07/13 11:13:38;;;;;;;5.10;4.18;;;;;;;28.35;49.77;69923.63;5024876;28;20127;-80
2022/07/13 11:16:06;;;;;;;6.88;4.47;;;;;;;28.29;49.58;69917.31;5036352;28;20076;-78
2022/07/13 11:18:33;;;;;;;5.18;3.67;;;;;;;28.64;48.44;69955.84;4999793;28;20041;-82
2022/07/13 11:21:14;;;;;;;9.30;4.30;;;;;;;28.64;47.24;69958.59;5023735;28;20049;-78
2022/07/13 11:26:39;;;;;;;6.05;4.25;;;;;;;28.59;48.30;69952.84;5024332;28;20045;-81
2022/07/13 11:29:16;;;;;;;7.25;4.43;;;;;;;28.65;47.99;69954.25;5032645;28;20103;-78
2022/07/13 11:31:42;;;;;;;5.20;4.00;;;;;;;28.49;47.15;69939.75;5041836;28;20037;-81
2022/07/13 11:34:07;;;;;;;6.82;4.28;;;;;;;28.53;47.07;69947.09;5029671;28;20526;-80
2022/07/13 11:36:33;;;;;;;7.43;3.97;;;;;;;28.42;46.89;69928.97;5034354;28;20375;-77
2022/07/13 11:38:58;;;;;;;6.53;4.05;;;;;;;28.47;46.58;69937.44;5032088;28;20232;-78
2022/07/13 11:41:24;;;;;;;6.25;4.13;;;;;;;28.55;47.00;69946.66;5034349;28;20038;-82
2022/07/13 11:43:53;;;;;;;6.82;4.30;;;;;;;28.75;45.45;69969.06;5042650;28;20587;-78
2022/07/13 11:46:27;;;;;;;5.50;3.15;;;;;;;28.79;44.17;69976.41;5040269;28;20037;-79
2022/07/13 11:49:01;;;;;;;5.95;3.17;;;;;;;29.11;43.86;70014.25;4996303;28;20043;-80
2022/07/13 11:51:26;;;;;;;4.47;3.45;;;;;;;28.86;42.68;69980.56;5031014;28;20121;-83
2022/07/13 11:53:52;;;;;;;5.90;3.60;;;;;;;28.94;43.78;69993.06;5021172;28;20037;-79
2022/07/13 11:56:17;;;;;;;5.20;3.25;;;;;;;29.13;43.01;70017.13;5021101;28;20072;-78
2022/07/13 11:58:45;;;;;;;5.80;3.47;;;;;;;29.11;42.71;70006.03;5032113;28;20044;-80
2022/07/13 12:01:17;;;;;;;4.13;3.33;;;;;;;29.10;42.89;70010.38;5032877;28;20120;-79
2022/07/13 12:03:49;;;;;;;4.68;3.40;;;;;;;29.12;42.63;70015.41;5034662;28;20068;-78
2022/07/13 12:06:15;;;;;;;4.93;3.40;;;;;;;29.29;42.60;70029.47;5035281;28;20029;-78
2022/07/13 12:08:42;;;;;;;4.38;2.90;;;;;;;29.39;41.81;70046.47;5036968;28;20095;-77
2022/07/13 12:11:15;;;;;;;5.30;3.50;;;;;;;29.36;41.62;70040.28;5028669;28;20080;-78
2022/07/13 12:13:42;;;;;;;4.55;3.38;;;;;;;29.41;41.99;70039.97;5032977;28;20045;-84